sensor_id;sensor_type;location;lat;lon;timestamp;pressure;altitude;pressure_sealevel;temperature;humidity
37206;BME280;23099;42.636;23.198;2023-10-08T00:00:23;92510.75;;;9.37;69.78
37206;BME280;23099;42.636;23.198;2023-10-08T00:03:09;92498.09;;;9.34;70.81
37206;BME280;23099;42.636;23.198;2023-10-08T00:22:11;92478.22;;;9.90;67.26
37206;BME280;23099;42.636;23.198;2023-10-08T00:24:39;92483.66;;;9.94;66.63
37206;BME280;23099;42.636;23.198;2023-10-08T00:27:07;92479.09;;;9.95;66.46
37206;BME280;23099;42.636;23.198;2023-10-08T00:29:34;92472.63;;;9.80;67.30
37206;BME280;23099;42.636;23.198;2023-10-08T00:32:05;92465.44;;;9.68;67.84
37206;BME280;23099;42.636;23.198;2023-10-08T00:34:37;92472.06;;;9.74;68.93
37206;BME280;23099;42.636;23.198;2023-10-08T00:37:07;92465.41;;;9.52;70.16
37206;BME280;23099;42.636;23.198;2023-10-08T00:39:35;92463.25;;;9.42;70.43
37206;BME280;23099;42.636;23.198;2023-10-08T00:42:04;92463.75;;;9.32;70.41
37206;BME280;23099;42.636;23.198;2023-10-08T00:44:33;92456.84;;;9.31;71.25
37206;BME280;23099;42.636;23.198;2023-10-08T00:47:04;92458.97;;;9.26;69.96
37206;BME280;23099;42.636;23.198;2023-10-08T00:49:32;92465.28;;;9.33;70.01
37206;BME280;23099;42.636;23.198;2023-10-08T00:52:14;92454.72;;;9.37;69.04
37206;BME280;23099;42.636;23.198;2023-10-08T00:54:56;92453.69;;;9.41;68.93
37206;BME280;23099;42.636;23.198;2023-10-08T00:57:35;92453.06;;;9.32;70.35
37206;BME280;23099;42.636;23.198;2023-10-08T01:00:08;92451.53;;;9.31;69.50
37206;BME280;23099;42.636;23.198;2023-10-08T01:02:43;92446.53;;;9.30;70.57
37206;BME280;23099;42.636;23.198;2023-10-08T01:05:12;92458.06;;;9.34;70.42
37206;BME280;23099;42.636;23.198;2023-10-08T01:07:43;92451.84;;;9.30;70.88
37206;BME280;23099;42.636;23.198;2023-10-08T01:10:14;92445.84;;;9.33;70.65
37206;BME280;23099;42.636;23.198;2023-10-08T01:12:45;92450.06;;;9.34;70.91
37206;BME280;23099;42.636;23.198;2023-10-08T01:15:20;92447.50;;;9.09;71.46
37206;BME280;23099;42.636;23.198;2023-10-08T01:17:53;92441.41;;;9.09;71.99
37206;BME280;23099;42.636;23.198;2023-10-08T01:20:25;92440.63;;;9.08;72.66
37206;BME280;23099;42.636;23.198;2023-10-08T01:23:01;92433.03;;;9.10;71.53
37206;BME280;23099;42.636;23.198;2023-10-08T01:25:36;92446.16;;;9.15;72.52
37206;BME280;23099;42.636;23.198;2023-10-08T01:28:04;92444.03;;;9.21;72.17
37206;BME280;23099;42.636;23.198;2023-10-08T01:30:39;92429.59;;;9.10;72.63
37206;BME280;23099;42.636;23.198;2023-10-08T01:33:08;92439.06;;;9.07;72.20
37206;BME280;23099;42.636;23.198;2023-10-08T01:35:38;92439.84;;;9.08;71.88
37206;BME280;23099;42.636;23.198;2023-10-08T01:38:07;92439.47;;;9.21;72.62
37206;BME280;23099;42.636;23.198;2023-10-08T01:40:39;92445.56;;;9.22;72.57
37206;BME280;23099;42.636;23.198;2023-10-08T01:43:06;92445.25;;;9.11;72.66
37206;BME280;23099;42.636;23.198;2023-10-08T01:45:36;92440.53;;;9.05;72.73
37206;BME280;23099;42.636;23.198;2023-10-08T01:48:06;92442.53;;;9.08;72.73
37206;BME280;23099;42.636;23.198;2023-10-08T01:50:34;92440.28;;;9.10;72.17
37206;BME280;23099;42.636;23.198;2023-10-08T01:53:01;92440.09;;;9.03;74.30
37206;BME280;23099;42.636;23.198;2023-10-08T01:55:32;92442.97;;;8.98;74.48
37206;BME280;23099;42.636;23.198;2023-10-08T01:58:11;92430.31;;;8.95;73.95
37206;BME280;23099;42.636;23.198;2023-10-08T02:00:42;92430.25;;;8.91;74.38
37206;BME280;23099;42.636;23.198;2023-10-08T02:03:11;92430.03;;;8.84;75.36
37206;BME280;23099;42.636;23.198;2023-10-08T02:05:37;92438.81;;;8.84;75.64
37206;BME280;23099;42.636;23.198;2023-10-08T02:08:07;92434.41;;;8.76;74.92
37206;BME280;23099;42.636;23.198;2023-10-08T02:10:36;92441.63;;;8.76;74.60
37206;BME280;23099;42.636;23.198;2023-10-08T02:13:03;92444.25;;;8.88;74.67
37206;BME280;23099;42.636;23.198;2023-10-08T02:15:31;92442.66;;;8.99;74.19
37206;BME280;23099;42.636;23.198;2023-10-08T02:17:58;92438.53;;;9.02;74.13
37206;BME280;23099;42.636;23.198;2023-10-08T02:20:24;92429.53;;;9.06;72.81
37206;BME280;23099;42.636;23.198;2023-10-08T02:22:53;92429.03;;;9.16;73.04
37206;BME280;23099;42.636;23.198;2023-10-08T02:25:19;92430.47;;;9.14;74.11
37206;BME280;23099;42.636;23.198;2023-10-08T02:27:47;92429.88;;;9.05;75.03
37206;BME280;23099;42.636;23.198;2023-10-08T02:30:14;92432.97;;;9.07;74.78
37206;BME280;23099;42.636;23.198;2023-10-08T02:32:43;92422.44;;;8.98;73.75
37206;BME280;23099;42.636;23.198;2023-10-08T02:35:10;92412.53;;;8.99;73.87
37206;BME280;23099;42.636;23.198;2023-10-08T02:37:38;92415.94;;;9.11;73.94
37206;BME280;23099;42.636;23.198;2023-10-08T02:40:07;92414.16;;;9.15;72.32
37206;BME280;23099;42.636;23.198;2023-10-08T02:42:42;92411.25;;;9.20;72.06
37206;BME280;23099;42.636;23.198;2023-10-08T02:45:11;92415.19;;;9.27;71.92
37206;BME280;23099;42.636;23.198;2023-10-08T02:47:40;92406.06;;;9.28;71.76
37206;BME280;23099;42.636;23.198;2023-10-08T02:50:08;92409.00;;;9.23;72.08
37206;BME280;23099;42.636;23.198;2023-10-08T02:52:36;92410.19;;;9.25;70.98
37206;BME280;23099;42.636;23.198;2023-10-08T02:55:03;92419.47;;;9.15;72.32
37206;BME280;23099;42.636;23.198;2023-10-08T02:57:30;92420.16;;;9.12;73.61
37206;BME280;23099;42.636;23.198;2023-10-08T02:59:57;92426.25;;;9.13;72.79
37206;BME280;23099;42.636;23.198;2023-10-08T03:02:26;92422.38;;;9.10;72.56
37206;BME280;23099;42.636;23.198;2023-10-08T03:04:53;92422.81;;;9.12;72.15
37206;BME280;23099;42.636;23.198;2023-10-08T03:07:20;92430.16;;;9.15;72.12
37206;BME280;23099;42.636;23.198;2023-10-08T03:09:58;92433.41;;;9.09;72.71
37206;BME280;23099;42.636;23.198;2023-10-08T03:12:31;92429.53;;;9.06;72.75
37206;BME280;23099;42.636;23.198;2023-10-08T03:14:58;92428.47;;;9.23;72.18
37206;BME280;23099;42.636;23.198;2023-10-08T03:17:39;92430.41;;;9.26;72.06
37206;BME280;23099;42.636;23.198;2023-10-08T03:20:14;92436.19;;;9.28;72.34
37206;BME280;23099;42.636;23.198;2023-10-08T03:22:55;92432.38;;;9.13;72.96
37206;BME280;23099;42.636;23.198;2023-10-08T03:25:23;92425.69;;;9.19;72.88
37206;BME280;23099;42.636;23.198;2023-10-08T03:27:50;92425.41;;;9.25;72.89
37206;BME280;23099;42.636;23.198;2023-10-08T03:30:19;92431.03;;;9.19;73.50
37206;BME280;23099;42.636;23.198;2023-10-08T03:32:48;92426.09;;;9.06;72.77
37206;BME280;23099;42.636;23.198;2023-10-08T03:35:21;92418.53;;;9.08;72.71
37206;BME280;23099;42.636;23.198;2023-10-08T03:37:53;92422.81;;;9.12;72.73
37206;BME280;23099;42.636;23.198;2023-10-08T03:40:40;92416.25;;;9.22;72.11
37206;BME280;23099;42.636;23.198;2023-10-08T03:43:08;92419.25;;;9.20;72.83
37206;BME280;23099;42.636;23.198;2023-10-08T03:45:45;92413.97;;;9.08;73.00
37206;BME280;23099;42.636;23.198;2023-10-08T03:48:18;92408.44;;;9.01;73.60
37206;BME280;23099;42.636;23.198;2023-10-08T03:50:47;92402.16;;;8.94;73.89
37206;BME280;23099;42.636;23.198;2023-10-08T03:53:22;92408.25;;;8.94;74.26
37206;BME280;23099;42.636;23.198;2023-10-08T03:55:49;92409.25;;;8.90;74.20
37206;BME280;23099;42.636;23.198;2023-10-08T03:58:17;92400.28;;;8.82;73.98
37206;BME280;23099;42.636;23.198;2023-10-08T04:00:53;92399.94;;;8.83;73.15
37206;BME280;23099;42.636;23.198;2023-10-08T04:03:35;92405.81;;;8.89;73.65
37206;BME280;23099;42.636;23.198;2023-10-08T04:06:23;92391.72;;;8.89;73.59
37206;BME280;23099;42.636;23.198;2023-10-08T04:08:54;92401.38;;;8.93;72.99
37206;BME280;23099;42.636;23.198;2023-10-08T04:11:30;92402.53;;;8.80;74.61
37206;BME280;23099;42.636;23.198;2023-10-08T04:14:00;92392.44;;;8.73;74.62
37206;BME280;23099;42.636;23.198;2023-10-08T04:16:27;92400.44;;;8.73;74.42
37206;BME280;23099;42.636;23.198;2023-10-08T04:18:56;92395.88;;;8.74;74.77
37206;BME280;23099;42.636;23.198;2023-10-08T04:21:28;92398.53;;;8.74;74.84
37206;BME280;23099;42.636;23.198;2023-10-08T04:23:56;92405.31;;;8.71;74.50
37206;BME280;23099;42.636;23.198;2023-10-08T04:26:23;92389.34;;;8.71;74.63
37206;BME280;23099;42.636;23.198;2023-10-08T04:28:51;92387.69;;;8.67;74.80
37206;BME280;23099;42.636;23.198;2023-10-08T04:31:22;92379.59;;;8.63;74.83
37206;BME280;23099;42.636;23.198;2023-10-08T04:33:53;92375.06;;;8.64;73.95
37206;BME280;23099;42.636;23.198;2023-10-08T04:36:22;92394.66;;;8.71;74.54
37206;BME280;23099;42.636;23.198;2023-10-08T04:38:48;92395.44;;;8.72;75.20
37206;BME280;23099;42.636;23.198;2023-10-08T04:41:21;92391.22;;;8.71;74.73
37206;BME280;23099;42.636;23.198;2023-10-08T04:43:53;92393.13;;;8.70;74.93
37206;BME280;23099;42.636;23.198;2023-10-08T04:46:21;92384.94;;;8.63;75.25
37206;BME280;23099;42.636;23.198;2023-10-08T04:49:05;92393.00;;;8.67;75.21
37206;BME280;23099;42.636;23.198;2023-10-08T04:51:36;92387.50;;;8.60;74.67
37206;BME280;23099;42.636;23.198;2023-10-08T04:54:10;92395.03;;;8.58;75.82
37206;BME280;23099;42.636;23.198;2023-10-08T04:56:41;92401.84;;;8.43;76.11
37206;BME280;23099;42.636;23.198;2023-10-08T04:59:08;92392.75;;;8.44;76.28
37206;BME280;23099;42.636;23.198;2023-10-08T05:01:37;92395.38;;;8.56;75.90
37206;BME280;23099;42.636;23.198;2023-10-08T05:04:13;92398.09;;;8.72;75.48
37206;BME280;23099;42.636;23.198;2023-10-08T05:06:53;92397.25;;;8.56;76.77
37206;BME280;23099;42.636;23.198;2023-10-08T05:09:37;92400.47;;;8.61;76.96
37206;BME280;23099;42.636;23.198;2023-10-08T05:12:17;92391.22;;;8.71;75.83
37206;BME280;23099;42.636;23.198;2023-10-08T05:15:00;92388.13;;;8.69;74.60
37206;BME280;23099;42.636;23.198;2023-10-08T05:17:58;92399.03;;;8.92;74.01
37206;BME280;23099;42.636;23.198;2023-10-08T05:20:35;92396.59;;;8.86;76.01
37206;BME280;23099;42.636;23.198;2023-10-08T05:23:26;92389.97;;;8.80;76.10
37206;BME280;23099;42.636;23.198;2023-10-08T05:26:10;92389.53;;;8.78;76.62
37206;BME280;23099;42.636;23.198;2023-10-08T05:28:46;92395.66;;;8.79;76.68
37206;BME280;23099;42.636;23.198;2023-10-08T05:31:13;92395.66;;;8.79;76.58
37206;BME280;23099;42.636;23.198;2023-10-08T05:34:02;92384.59;;;8.65;76.93
37206;BME280;23099;42.636;23.198;2023-10-08T05:36:40;92393.41;;;8.81;75.62
37206;BME280;23099;42.636;23.198;2023-10-08T05:39:27;92394.72;;;8.87;76.11
37206;BME280;23099;42.636;23.198;2023-10-08T05:41:55;92402.72;;;8.87;75.97
37206;BME280;23099;42.636;23.198;2023-10-08T05:44:39;92400.94;;;8.91;75.87
37206;BME280;23099;42.636;23.198;2023-10-08T05:47:05;92411.88;;;9.02;75.32
37206;BME280;23099;42.636;23.198;2023-10-08T05:49:50;92405.28;;;9.11;75.85
37206;BME280;23099;42.636;23.198;2023-10-08T05:52:54;92405.03;;;9.16;74.94
37206;BME280;23099;42.636;23.198;2023-10-08T05:55:31;92415.13;;;9.23;74.54
37206;BME280;23099;42.636;23.198;2023-10-08T05:58:08;92417.44;;;9.40;75.08
37206;BME280;23099;42.636;23.198;2023-10-08T06:00:50;92427.03;;;9.57;72.10
37206;BME280;23099;42.636;23.198;2023-10-08T06:03:34;92414.72;;;9.68;72.90
37206;BME280;23099;42.636;23.198;2023-10-08T06:06:11;92418.50;;;9.83;72.20
37206;BME280;23099;42.636;23.198;2023-10-08T06:09:02;92422.72;;;10.00;71.71
37206;BME280;23099;42.636;23.198;2023-10-08T06:11:50;92419.28;;;10.15;70.35
37206;BME280;23099;42.636;23.198;2023-10-08T06:14:34;92409.81;;;10.33;70.05
37206;BME280;23099;42.636;23.198;2023-10-08T06:17:19;92419.00;;;10.51;69.87
37206;BME280;23099;42.636;23.198;2023-10-08T06:20:10;92413.72;;;10.74;70.00
37206;BME280;23099;42.636;23.198;2023-10-08T06:22:42;92423.31;;;10.94;67.81
37206;BME280;23099;42.636;23.198;2023-10-08T06:25:09;92422.53;;;11.13;67.78
37206;BME280;23099;42.636;23.198;2023-10-08T06:27:50;92424.50;;;11.36;64.50
37206;BME280;23099;42.636;23.198;2023-10-08T06:30:21;92422.16;;;11.53;66.72
37206;BME280;23099;42.636;23.198;2023-10-08T06:32:50;92414.38;;;11.67;64.32
37206;BME280;23099;42.636;23.198;2023-10-08T06:35:19;92420.09;;;11.89;63.89
37206;BME280;23099;42.636;23.198;2023-10-08T06:37:51;92429.50;;;12.02;62.48
37206;BME280;23099;42.636;23.198;2023-10-08T06:40:20;92427.03;;;12.16;59.77
37206;BME280;23099;42.636;23.198;2023-10-08T06:43:05;92424.66;;;12.34;58.23
37206;BME280;23099;42.636;23.198;2023-10-08T06:45:37;92429.09;;;12.49;55.88
37206;BME280;23099;42.636;23.198;2023-10-08T06:48:06;92422.72;;;12.61;57.97
37206;BME280;23099;42.636;23.198;2023-10-08T06:50:33;92423.22;;;12.70;57.22
37206;BME280;23099;42.636;23.198;2023-10-08T06:53:02;92425.91;;;12.70;58.72
37206;BME280;23099;42.636;23.198;2023-10-08T06:55:32;92413.66;;;12.69;59.39
37206;BME280;23099;42.636;23.198;2023-10-08T06:58:01;92414.81;;;12.71;61.37
37206;BME280;23099;42.636;23.198;2023-10-08T07:00:32;92418.28;;;12.72;60.95
37206;BME280;23099;42.636;23.198;2023-10-08T07:03:05;92426.09;;;12.81;62.57
37206;BME280;23099;42.636;23.198;2023-10-08T07:05:33;92421.06;;;12.79;62.82
37206;BME280;23099;42.636;23.198;2023-10-08T07:08:02;92418.38;;;12.79;63.97
37206;BME280;23099;42.636;23.198;2023-10-08T07:10:32;92412.31;;;12.82;63.98
37206;BME280;23099;42.636;23.198;2023-10-08T07:12:59;92406.72;;;12.94;58.43
37206;BME280;23099;42.636;23.198;2023-10-08T07:15:28;92408.44;;;13.13;56.93
37206;BME280;23099;42.636;23.198;2023-10-08T07:17:56;92418.59;;;13.23;58.92
37206;BME280;23099;42.636;23.198;2023-10-08T07:20:34;92422.56;;;13.36;58.16
37206;BME280;23099;42.636;23.198;2023-10-08T07:23:04;92415.13;;;13.60;60.21
37206;BME280;23099;42.636;23.198;2023-10-08T07:25:35;92409.56;;;13.79;58.07
37206;BME280;23099;42.636;23.198;2023-10-08T07:28:04;92409.75;;;14.00;56.30
37206;BME280;23099;42.636;23.198;2023-10-08T07:30:37;92406.84;;;14.20;53.84
37206;BME280;23099;42.636;23.198;2023-10-08T07:33:10;92418.44;;;14.31;52.98
37206;BME280;23099;42.636;23.198;2023-10-08T07:35:43;92404.66;;;14.36;53.91
37206;BME280;23099;42.636;23.198;2023-10-08T07:38:20;92395.22;;;14.53;48.46
37206;BME280;23099;42.636;23.198;2023-10-08T07:40:48;92391.53;;;14.78;47.10
37206;BME280;23099;42.636;23.198;2023-10-08T07:43:15;92389.69;;;14.93;46.91
37206;BME280;23099;42.636;23.198;2023-10-08T07:45:45;92395.16;;;15.18;46.32
37206;BME280;23099;42.636;23.198;2023-10-08T07:48:13;92395.63;;;15.38;46.17
37206;BME280;23099;42.636;23.198;2023-10-08T07:50:41;92393.03;;;15.63;41.81
37206;BME280;23099;42.636;23.198;2023-10-08T07:53:08;92391.16;;;15.84;41.44
37206;BME280;23099;42.636;23.198;2023-10-08T07:55:43;92375.75;;;16.06;40.00
37206;BME280;23099;42.636;23.198;2023-10-08T07:58:10;92390.41;;;16.30;40.01
37206;BME280;23099;42.636;23.198;2023-10-08T08:00:37;92383.44;;;16.50;39.70
37206;BME280;23099;42.636;23.198;2023-10-08T08:03:06;92377.25;;;16.75;39.47
37206;BME280;23099;42.636;23.198;2023-10-08T08:05:35;92386.09;;;16.93;38.67
37206;BME280;23099;42.636;23.198;2023-10-08T08:08:03;92391.47;;;17.04;36.59
37206;BME280;23099;42.636;23.198;2023-10-08T08:10:32;92377.22;;;16.96;36.80
37206;BME280;23099;42.636;23.198;2023-10-08T08:13:03;92377.94;;;17.07;36.58
37206;BME280;23099;42.636;23.198;2023-10-08T08:15:32;92367.88;;;17.18;37.32
37206;BME280;23099;42.636;23.198;2023-10-08T08:17:59;92366.66;;;17.33;37.90
37206;BME280;23099;42.636;23.198;2023-10-08T08:20:29;92363.50;;;17.49;37.64
37206;BME280;23099;42.636;23.198;2023-10-08T08:23:05;92358.81;;;17.64;36.94
37206;BME280;23099;42.636;23.198;2023-10-08T08:25:40;92358.72;;;17.78;37.43
37206;BME280;23099;42.636;23.198;2023-10-08T08:28:31;92365.16;;;18.02;36.21
37206;BME280;23099;42.636;23.198;2023-10-08T08:31:02;92359.34;;;18.00;35.95
37206;BME280;23099;42.636;23.198;2023-10-08T08:33:30;92360.44;;;18.06;35.37
37206;BME280;23099;42.636;23.198;2023-10-08T08:36:17;92360.34;;;18.20;35.82
37206;BME280;23099;42.636;23.198;2023-10-08T08:38:45;92355.63;;;18.31;35.69
37206;BME280;23099;42.636;23.198;2023-10-08T08:41:13;92359.91;;;18.29;34.16
37206;BME280;23099;42.636;23.198;2023-10-08T08:43:44;92354.09;;;18.30;34.84
37206;BME280;23099;42.636;23.198;2023-10-08T08:46:11;92361.81;;;18.32;34.83
37206;BME280;23099;42.636;23.198;2023-10-08T08:48:42;92355.25;;;18.29;35.11
37206;BME280;23099;42.636;23.198;2023-10-08T08:51:10;92356.06;;;18.26;34.97
37206;BME280;23099;42.636;23.198;2023-10-08T08:53:37;92366.09;;;18.29;35.31
37206;BME280;23099;42.636;23.198;2023-10-08T08:56:08;92358.66;;;18.41;34.99
37206;BME280;23099;42.636;23.198;2023-10-08T08:58:36;92361.22;;;18.55;34.06
37206;BME280;23099;42.636;23.198;2023-10-08T09:01:05;92361.00;;;18.80;35.18
37206;BME280;23099;42.636;23.198;2023-10-08T09:03:33;92356.97;;;18.95;33.83
37206;BME280;23099;42.636;23.198;2023-10-08T09:06:00;92354.16;;;19.05;33.86
37206;BME280;23099;42.636;23.198;2023-10-08T09:08:28;92349.84;;;19.12;34.40
37206;BME280;23099;42.636;23.198;2023-10-08T09:10:59;92345.19;;;19.12;33.24
37206;BME280;23099;42.636;23.198;2023-10-08T09:13:28;92341.28;;;19.17;34.13
37206;BME280;23099;42.636;23.198;2023-10-08T09:16:06;92350.06;;;19.24;33.46
37206;BME280;23099;42.636;23.198;2023-10-08T09:18:33;92345.75;;;19.30;33.50
37206;BME280;23099;42.636;23.198;2023-10-08T09:21:14;92346.44;;;19.34;33.34
37206;BME280;23099;42.636;23.198;2023-10-08T09:23:41;92345.50;;;19.48;32.72
37206;BME280;23099;42.636;23.198;2023-10-08T09:26:10;92343.50;;;19.56;32.72
37206;BME280;23099;42.636;23.198;2023-10-08T09:28:44;92333.84;;;19.55;32.94
37206;BME280;23099;42.636;23.198;2023-10-08T09:31:12;92337.66;;;19.61;33.39
37206;BME280;23099;42.636;23.198;2023-10-08T09:33:39;92340.56;;;19.73;32.66
37206;BME280;23099;42.636;23.198;2023-10-08T09:36:08;92335.84;;;19.77;33.50
37206;BME280;23099;42.636;23.198;2023-10-08T09:38:36;92327.44;;;19.68;33.23
37206;BME280;23099;42.636;23.198;2023-10-08T09:41:03;92335.13;;;19.73;32.52
37206;BME280;23099;42.636;23.198;2023-10-08T09:43:32;92334.56;;;19.86;33.68
37206;BME280;23099;42.636;23.198;2023-10-08T09:46:08;92320.66;;;20.07;33.30
37206;BME280;23099;42.636;23.198;2023-10-08T09:48:37;92310.44;;;20.18;31.96
37206;BME280;23099;42.636;23.198;2023-10-08T09:51:10;92308.97;;;20.37;31.86
37206;BME280;23099;42.636;23.198;2023-10-08T09:53:45;92320.72;;;20.54;32.66
37206;BME280;23099;42.636;23.198;2023-10-08T09:56:14;92314.00;;;20.62;31.45
37206;BME280;23099;42.636;23.198;2023-10-08T09:58:43;92317.53;;;20.78;31.25
37206;BME280;23099;42.636;23.198;2023-10-08T10:01:12;92312.56;;;20.97;31.82
37206;BME280;23099;42.636;23.198;2023-10-08T10:03:39;92313.41;;;21.13;31.55
37206;BME280;23099;42.636;23.198;2023-10-08T10:06:12;92309.84;;;21.16;30.71
37206;BME280;23099;42.636;23.198;2023-10-08T10:08:41;92306.03;;;21.34;30.96
37206;BME280;23099;42.636;23.198;2023-10-08T10:11:08;92303.94;;;21.41;30.83
37206;BME280;23099;42.636;23.198;2023-10-08T10:13:39;92299.91;;;21.66;30.75
37206;BME280;23099;42.636;23.198;2023-10-08T10:16:06;92303.53;;;21.95;30.27
37206;BME280;23099;42.636;23.198;2023-10-08T10:18:35;92305.72;;;22.20;29.60
37206;BME280;23099;42.636;23.198;2023-10-08T10:21:27;92296.84;;;22.32;28.90
37206;BME280;23099;42.636;23.198;2023-10-08T10:23:55;92289.03;;;22.02;29.18
37206;BME280;23099;42.636;23.198;2023-10-08T10:26:25;92294.38;;;21.69;30.31
37206;BME280;23099;42.636;23.198;2023-10-08T10:29:21;92293.63;;;22.05;30.38
37206;BME280;23099;42.636;23.198;2023-10-08T10:31:51;92286.19;;;22.54;29.74
37206;BME280;23099;42.636;23.198;2023-10-08T10:34:22;92277.13;;;22.89;29.85
37206;BME280;23099;42.636;23.198;2023-10-08T10:36:52;92278.50;;;23.23;28.21
37206;BME280;23099;42.636;23.198;2023-10-08T10:39:24;92274.66;;;23.49;28.47
37206;BME280;23099;42.636;23.198;2023-10-08T10:41:57;92271.44;;;23.38;28.51
37206;BME280;23099;42.636;23.198;2023-10-08T10:44:27;92263.13;;;23.16;28.75
37206;BME280;23099;42.636;23.198;2023-10-08T10:46:55;92265.22;;;23.25;28.92
37206;BME280;23099;42.636;23.198;2023-10-08T10:49:50;92262.59;;;23.63;28.57
37206;BME280;23099;42.636;23.198;2023-10-08T10:52:21;92262.88;;;23.52;27.86
37206;BME280;23099;42.636;23.198;2023-10-08T10:55:01;92258.16;;;23.40;28.99
37206;BME280;23099;42.636;23.198;2023-10-08T10:57:44;92252.88;;;23.20;29.04
37206;BME280;23099;42.636;23.198;2023-10-08T11:00:19;92252.53;;;23.06;29.87
37206;BME280;23099;42.636;23.198;2023-10-08T11:03:13;92249.63;;;22.68;30.71
37206;BME280;23099;42.636;23.198;2023-10-08T11:05:44;92241.00;;;22.40;30.83
37206;BME280;23099;42.636;23.198;2023-10-08T11:08:15;92242.56;;;22.25;31.40
37206;BME280;23099;42.636;23.198;2023-10-08T11:10:44;92243.16;;;22.16;32.39
37206;BME280;23099;42.636;23.198;2023-10-08T11:13:17;92253.38;;;22.12;32.45
37206;BME280;23099;42.636;23.198;2023-10-08T11:15:47;92242.38;;;21.83;32.85
37206;BME280;23099;42.636;23.198;2023-10-08T11:18:18;92243.56;;;21.82;33.31
37206;BME280;23099;42.636;23.198;2023-10-08T11:20:47;92238.47;;;21.84;33.69
37206;BME280;23099;42.636;23.198;2023-10-08T11:23:33;92226.47;;;21.98;33.31
37206;BME280;23099;42.636;23.198;2023-10-08T11:26:02;92225.22;;;22.03;33.31
37206;BME280;23099;42.636;23.198;2023-10-08T11:28:30;92222.28;;;21.94;34.28
37206;BME280;23099;42.636;23.198;2023-10-08T11:30:59;92220.94;;;21.85;34.20
37206;BME280;23099;42.636;23.198;2023-10-08T11:33:34;92227.59;;;21.84;34.06
37206;BME280;23099;42.636;23.198;2023-10-08T11:36:04;92223.06;;;21.94;33.97
37206;BME280;23099;42.636;23.198;2023-10-08T11:38:38;92225.53;;;21.88;33.66
37206;BME280;23099;42.636;23.198;2023-10-08T11:41:12;92223.16;;;21.91;33.87
37206;BME280;23099;42.636;23.198;2023-10-08T11:43:47;92215.00;;;21.91;33.27
37206;BME280;23099;42.636;23.198;2023-10-08T11:46:22;92233.06;;;22.01;33.08
37206;BME280;23099;42.636;23.198;2023-10-08T11:48:51;92231.16;;;21.98;33.81
37206;BME280;23099;42.636;23.198;2023-10-08T11:51:19;92229.19;;;21.82;33.71
37206;BME280;23099;42.636;23.198;2023-10-08T11:53:49;92222.81;;;21.72;34.19
37206;BME280;23099;42.636;23.198;2023-10-08T11:56:16;92249.94;;;21.76;34.16
37206;BME280;23099;42.636;23.198;2023-10-08T11:58:46;92229.44;;;21.55;34.33
37206;BME280;23099;42.636;23.198;2023-10-08T12:01:22;92226.97;;;21.61;35.43
37206;BME280;23099;42.636;23.198;2023-10-08T12:03:49;92231.69;;;21.40;34.12
37206;BME280;23099;42.636;23.198;2023-10-08T12:06:16;92228.72;;;21.35;34.10
37206;BME280;23099;42.636;23.198;2023-10-08T12:08:46;92229.91;;;21.34;34.93
37206;BME280;23099;42.636;23.198;2023-10-08T12:11:19;92227.53;;;21.36;33.70
37206;BME280;23099;42.636;23.198;2023-10-08T12:13:48;92224.38;;;21.37;33.90
37206;BME280;23099;42.636;23.198;2023-10-08T12:16:16;92224.31;;;21.41;33.85
37206;BME280;23099;42.636;23.198;2023-10-08T12:18:48;92223.97;;;21.39;34.23
37206;BME280;23099;42.636;23.198;2023-10-08T12:21:18;92225.56;;;21.36;33.64
37206;BME280;23099;42.636;23.198;2023-10-08T12:23:46;92229.91;;;21.34;34.24
37206;BME280;23099;42.636;23.198;2023-10-08T12:26:15;92227.44;;;21.39;33.17
37206;BME280;23099;42.636;23.198;2023-10-08T12:28:44;92217.28;;;21.60;33.68
37206;BME280;23099;42.636;23.198;2023-10-08T12:31:12;92215.91;;;21.68;33.16
37206;BME280;23099;42.636;23.198;2023-10-08T12:33:41;92212.28;;;21.74;33.88
37206;BME280;23099;42.636;23.198;2023-10-08T12:36:09;92209.38;;;21.81;33.65
37206;BME280;23099;42.636;23.198;2023-10-08T12:38:39;92209.66;;;21.87;34.11
37206;BME280;23099;42.636;23.198;2023-10-08T12:41:07;92216.44;;;21.95;34.53
37206;BME280;23099;42.636;23.198;2023-10-08T12:43:40;92211.28;;;22.01;34.20
37206;BME280;23099;42.636;23.198;2023-10-08T12:46:11;92207.19;;;22.09;34.25
37206;BME280;23099;42.636;23.198;2023-10-08T12:48:44;92215.09;;;21.87;32.96
37206;BME280;23099;42.636;23.198;2023-10-08T12:51:14;92203.38;;;22.06;33.34
37206;BME280;23099;42.636;23.198;2023-10-08T12:53:41;92208.94;;;22.32;33.05
37206;BME280;23099;42.636;23.198;2023-10-08T12:56:17;92212.19;;;22.27;33.11
37206;BME280;23099;42.636;23.198;2023-10-08T12:58:47;92195.34;;;22.15;33.56
37206;BME280;23099;42.636;23.198;2023-10-08T13:01:15;92204.38;;;22.12;33.34
37206;BME280;23099;42.636;23.198;2023-10-08T13:03:43;92216.66;;;22.04;34.49
37206;BME280;23099;42.636;23.198;2023-10-08T13:06:13;92191.94;;;21.95;34.06
37206;BME280;23099;42.636;23.198;2023-10-08T13:08:47;92198.34;;;21.88;33.71
37206;BME280;23099;42.636;23.198;2023-10-08T13:11:14;92197.81;;;22.10;34.31
37206;BME280;23099;42.636;23.198;2023-10-08T13:13:42;92204.81;;;22.11;33.66
37206;BME280;23099;42.636;23.198;2023-10-08T13:16:12;92209.22;;;22.21;33.40
37206;BME280;23099;42.636;23.198;2023-10-08T13:18:39;92197.03;;;22.26;33.38
37206;BME280;23099;42.636;23.198;2023-10-08T13:21:08;92180.41;;;22.36;33.41
37206;BME280;23099;42.636;23.198;2023-10-08T13:23:36;92197.84;;;22.39;33.17
37206;BME280;23099;42.636;23.198;2023-10-08T13:26:03;92187.63;;;22.43;32.91
37206;BME280;23099;42.636;23.198;2023-10-08T13:28:32;92184.28;;;22.51;33.30
37206;BME280;23099;42.636;23.198;2023-10-08T13:31:02;92176.94;;;22.36;33.23
37206;BME280;23099;42.636;23.198;2023-10-08T13:33:35;92180.34;;;22.23;34.05
37206;BME280;23099;42.636;23.198;2023-10-08T13:36:04;92189.06;;;22.18;33.61